sensor_id;sensor_type;location;lat;lon;timestamp;pressure;altitude;pressure_sealevel;temperature;humidity
41573;BME280;27286;47.870;19.006;2023-02-28T00:00:16;100349.44;;;-4.07;85.12
41573;BME280;27286;47.870;19.006;2023-02-28T00:02:43;100360.78;;;-3.98;85.05
41573;BME280;27286;47.870;19.006;2023-02-28T00:05:11;100362.53;;;-3.95;84.92
41573;BME280;27286;47.870;19.006;2023-02-28T00:07:37;100360.09;;;-3.92;85.00
41573;BME280;27286;47.870;19.006;2023-02-28T00:10:04;100362.06;;;-3.83;84.07
41573;BME280;27286;47.870;19.006;2023-02-28T00:12:31;100369.78;;;-3.80;84.15
41573;BME280;27286;47.870;19.006;2023-02-28T00:14:57;100368.13;;;-3.80;84.62
41573;BME280;27286;47.870;19.006;2023-02-28T00:17:22;100376.59;;;-3.79;84.37
41573;BME280;27286;47.870;19.006;2023-02-28T00:19:49;100377.47;;;-3.79;84.29
41573;BME280;27286;47.870;19.006;2023-02-28T00:22:16;100371.78;;;-3.70;84.59
41573;BME280;27286;47.870;19.006;2023-02-28T00:24:42;100369.59;;;-3.59;83.80
41573;BME280;27286;47.870;19.006;2023-02-28T00:27:07;100369.88;;;-3.50;83.13
41573;BME280;27286;47.870;19.006;2023-02-28T00:29:33;100374.34;;;-3.42;82.92
41573;BME280;27286;47.870;19.006;2023-02-28T00:31:58;100374.72;;;-3.29;82.36
41573;BME280;27286;47.870;19.006;2023-02-28T00:34:24;100368.84;;;-3.27;82.02
41573;BME280;27286;47.870;19.006;2023-02-28T00:36:49;100383.41;;;-3.23;81.94
41573;BME280;27286;47.870;19.006;2023-02-28T00:39:15;100379.13;;;-3.24;81.91
41573;BME280;27286;47.870;19.006;2023-02-28T00:41:41;100376.53;;;-3.25;82.69
41573;BME280;27286;47.870;19.006;2023-02-28T00:44:06;100382.31;;;-3.31;82.98
41573;BME280;27286;47.870;19.006;2023-02-28T00:46:32;100381.31;;;-3.36;83.62
41573;BME280;27286;47.870;19.006;2023-02-28T00:48:57;100376.16;;;-3.38;83.97
41573;BME280;27286;47.870;19.006;2023-02-28T00:51:23;100388.00;;;-3.40;83.73
41573;BME280;27286;47.870;19.006;2023-02-28T00:53:48;100385.38;;;-3.43;83.78
41573;BME280;27286;47.870;19.006;2023-02-28T00:56:14;100388.66;;;-3.47;84.32
41573;BME280;27286;47.870;19.006;2023-02-28T00:58:39;100384.25;;;-3.52;84.97
41573;BME280;27286;47.870;19.006;2023-02-28T01:01:05;100385.75;;;-3.57;85.06
41573;BME280;27286;47.870;19.006;2023-02-28T01:03:31;100374.53;;;-3.64;85.24
41573;BME280;27286;47.870;19.006;2023-02-28T01:05:57;100394.13;;;-3.61;85.74
41573;BME280;27286;47.870;19.006;2023-02-28T01:08:23;100386.41;;;-3.65;86.00
41573;BME280;27286;47.870;19.006;2023-02-28T01:10:48;100382.84;;;-3.70;85.65
41573;BME280;27286;47.870;19.006;2023-02-28T01:13:15;100388.81;;;-3.69;85.58
41573;BME280;27286;47.870;19.006;2023-02-28T01:15:46;100392.28;;;-3.67;85.76
41573;BME280;27286;47.870;19.006;2023-02-28T01:18:13;100386.19;;;-3.71;85.04
41573;BME280;27286;47.870;19.006;2023-02-28T01:20:39;100394.09;;;-3.63;85.32
41573;BME280;27286;47.870;19.006;2023-02-28T01:23:04;100394.94;;;-3.63;85.19
41573;BME280;27286;47.870;19.006;2023-02-28T01:25:30;100391.53;;;-3.63;85.25
41573;BME280;27286;47.870;19.006;2023-02-28T01:27:55;100400.13;;;-3.59;85.00
41573;BME280;27286;47.870;19.006;2023-02-28T01:30:21;100400.13;;;-3.59;85.12
41573;BME280;27286;47.870;19.006;2023-02-28T01:32:46;100401.06;;;-3.56;85.69
41573;BME280;27286;47.870;19.006;2023-02-28T01:35:12;100391.81;;;-3.54;85.77
41573;BME280;27286;47.870;19.006;2023-02-28T01:37:37;100398.91;;;-3.44;85.24
41573;BME280;27286;47.870;19.006;2023-02-28T01:40:03;100399.09;;;-3.38;85.73
41573;BME280;27286;47.870;19.006;2023-02-28T01:42:29;100401.06;;;-3.29;84.67
41573;BME280;27286;47.870;19.006;2023-02-28T01:44:55;100399.50;;;-3.24;85.16
41573;BME280;27286;47.870;19.006;2023-02-28T01:47:22;100404.59;;;-3.24;85.45
41573;BME280;27286;47.870;19.006;2023-02-28T01:49:50;100399.59;;;-3.21;84.67
41573;BME280;27286;47.870;19.006;2023-02-28T01:52:17;100401.44;;;-3.17;85.20
41573;BME280;27286;47.870;19.006;2023-02-28T01:54:51;100395.59;;;-3.13;85.45
41573;BME280;27286;47.870;19.006;2023-02-28T01:57:20;100396.63;;;-3.06;85.19
41573;BME280;27286;47.870;19.006;2023-02-28T01:59:54;100400.28;;;-2.98;85.11
41573;BME280;27286;47.870;19.006;2023-02-28T02:02:24;100397.94;;;-2.90;85.15
41573;BME280;27286;47.870;19.006;2023-02-28T02:05:06;100392.28;;;-2.80;84.72
41573;BME280;27286;47.870;19.006;2023-02-28T02:07:35;100390.78;;;-2.72;83.74
41573;BME280;27286;47.870;19.006;2023-02-28T02:10:05;100385.06;;;-2.65;82.72
41573;BME280;27286;47.870;19.006;2023-02-28T02:15:16;100398.16;;;-2.51;82.13
41573;BME280;27286;47.870;19.006;2023-02-28T02:17:45;100388.88;;;-2.49;81.87
41573;BME280;27286;47.870;19.006;2023-02-28T02:25:54;100397.56;;;-2.41;80.16
41573;BME280;27286;47.870;19.006;2023-02-28T02:28:52;100394.22;;;-2.38;80.41
41573;BME280;27286;47.870;19.006;2023-02-28T02:31:28;100394.41;;;-2.32;79.74
41573;BME280;27286;47.870;19.006;2023-02-28T02:34:25;100393.69;;;-2.27;79.89
41573;BME280;27286;47.870;19.006;2023-02-28T02:42:53;100379.63;;;-2.11;76.98
41573;BME280;27286;47.870;19.006;2023-02-28T02:45:52;100375.13;;;-1.87;72.74
41573;BME280;27286;47.870;19.006;2023-02-28T02:48:21;100366.75;;;-1.81;73.00
41573;BME280;27286;47.870;19.006;2023-02-28T02:50:53;100382.19;;;-1.76;74.13
41573;BME280;27286;47.870;19.006;2023-02-28T02:53:25;100391.56;;;-1.75;75.11
41573;BME280;27286;47.870;19.006;2023-02-28T02:55:54;100389.78;;;-1.78;76.50
41573;BME280;27286;47.870;19.006;2023-02-28T02:58:25;100389.75;;;-1.79;77.18
41573;BME280;27286;47.870;19.006;2023-02-28T03:00:58;100390.63;;;-1.79;77.67
41573;BME280;27286;47.870;19.006;2023-02-28T03:03:25;100386.31;;;-1.82;76.86
41573;BME280;27286;47.870;19.006;2023-02-28T03:05:56;100386.44;;;-1.75;76.82
41573;BME280;27286;47.870;19.006;2023-02-28T03:08:22;100382.28;;;-1.72;77.02
41573;BME280;27286;47.870;19.006;2023-02-28T03:10:50;100382.44;;;-1.66;76.25
41573;BME280;27286;47.870;19.006;2023-02-28T03:33:12;100391.56;;;-1.38;70.01
41573;BME280;27286;47.870;19.006;2023-02-28T03:35:43;100390.72;;;-1.37;69.58
41573;BME280;27286;47.870;19.006;2023-02-28T03:38:35;100391.63;;;-1.35;69.39
41573;BME280;27286;47.870;19.006;2023-02-28T03:41:13;100394.25;;;-1.32;69.39
41573;BME280;27286;47.870;19.006;2023-02-28T03:43:43;100395.94;;;-1.34;69.18
41573;BME280;27286;47.870;19.006;2023-02-28T03:46:12;100390.94;;;-1.28;67.65
41573;BME280;27286;47.870;19.006;2023-02-28T03:48:45;100392.88;;;-1.17;65.67
41573;BME280;27286;47.870;19.006;2023-02-28T03:51:16;100393.97;;;-1.05;63.76
41573;BME280;27286;47.870;19.006;2023-02-28T03:53:47;100391.47;;;-1.02;65.06
41573;BME280;27286;47.870;19.006;2023-02-28T03:56:22;100391.53;;;-1.00;64.08
41573;BME280;27286;47.870;19.006;2023-02-28T03:59:00;100390.63;;;-1.02;63.38
41573;BME280;27286;47.870;19.006;2023-02-28T04:01:53;100390.72;;;-0.98;63.33
41573;BME280;27286;47.870;19.006;2023-02-28T04:04:20;100380.59;;;-0.93;62.79
41573;BME280;27286;47.870;19.006;2023-02-28T04:06:49;100386.59;;;-0.91;62.12
41573;BME280;27286;47.870;19.006;2023-02-28T04:09:15;100378.91;;;-0.93;63.55
41573;BME280;27286;47.870;19.006;2023-02-28T04:11:43;100379.69;;;-0.95;63.73
41573;BME280;27286;47.870;19.006;2023-02-28T04:14:10;100390.81;;;-0.93;64.27
41573;BME280;27286;47.870;19.006;2023-02-28T04:16:38;100385.66;;;-0.95;64.54
41573;BME280;27286;47.870;19.006;2023-02-28T04:19:05;100375.41;;;-0.98;63.67
41573;BME280;27286;47.870;19.006;2023-02-28T04:21:36;100385.69;;;-0.93;62.90
41573;BME280;27286;47.870;19.006;2023-02-28T04:24:07;100379.66;;;-0.98;62.52
41573;BME280;27286;47.870;19.006;2023-02-28T04:26:35;100383.03;;;-0.99;63.63
41573;BME280;27286;47.870;19.006;2023-02-28T04:29:03;100383.78;;;-1.03;64.52
41573;BME280;27286;47.870;19.006;2023-02-28T04:31:29;100383.75;;;-1.05;65.02
41573;BME280;27286;47.870;19.006;2023-02-28T04:33:55;100386.28;;;-1.06;65.20
41573;BME280;27286;47.870;19.006;2023-02-28T04:36:21;100376.97;;;-1.03;64.95
41573;BME280;27286;47.870;19.006;2023-02-28T04:38:48;100376.25;;;-0.97;63.05
41573;BME280;27286;47.870;19.006;2023-02-28T04:41:14;100377.31;;;-0.86;61.56
41573;BME280;27286;47.870;19.006;2023-02-28T04:43:40;100372.38;;;-0.77;61.54
41573;BME280;27286;47.870;19.006;2023-02-28T04:46:06;100374.94;;;-0.77;61.83
41573;BME280;27286;47.870;19.006;2023-02-28T04:48:34;100364.78;;;-0.74;61.20
41573;BME280;27286;47.870;19.006;2023-02-28T04:51:04;100367.41;;;-0.69;61.44
41573;BME280;27286;47.870;19.006;2023-02-28T04:53:31;100366.53;;;-0.70;60.22
41573;BME280;27286;47.870;19.006;2023-02-28T04:55:57;100370.00;;;-0.68;60.16
41573;BME280;27286;47.870;19.006;2023-02-28T04:58:23;100377.00;;;-0.57;60.42
41573;BME280;27286;47.870;19.006;2023-02-28T05:00:49;100372.69;;;-0.62;61.34
41573;BME280;27286;47.870;19.006;2023-02-28T05:03:15;100369.31;;;-0.59;60.71
41573;BME280;27286;47.870;19.006;2023-02-28T05:05:40;100359.97;;;-0.57;60.19
41573;BME280;27286;47.870;19.006;2023-02-28T05:08:05;100373.59;;;-0.58;60.90
41573;BME280;27286;47.870;19.006;2023-02-28T05:10:31;100367.56;;;-0.62;61.49
41573;BME280;27286;47.870;19.006;2023-02-28T05:12:57;100362.47;;;-0.62;60.06
41573;BME280;27286;47.870;19.006;2023-02-28T05:15:23;100371.00;;;-0.59;60.46
41573;BME280;27286;47.870;19.006;2023-02-28T05:17:49;100367.59;;;-0.60;61.16
41573;BME280;27286;47.870;19.006;2023-02-28T05:20:15;100373.63;;;-0.56;59.87
41573;BME280;27286;47.870;19.006;2023-02-28T05:22:41;100372.72;;;-0.60;60.39
41573;BME280;27286;47.870;19.006;2023-02-28T05:25:08;100373.78;;;-0.49;58.36
41573;BME280;27286;47.870;19.006;2023-02-28T05:27:36;100387.44;;;-0.48;58.82
41573;BME280;27286;47.870;19.006;2023-02-28T05:30:02;100373.75;;;-0.50;59.47
41573;BME280;27286;47.870;19.006;2023-02-28T05:32:29;100389.97;;;-0.50;59.44
41573;BME280;27286;47.870;19.006;2023-02-28T05:34:54;100376.22;;;-0.55;59.03
41573;BME280;27286;47.870;19.006;2023-02-28T05:37:20;100388.19;;;-0.52;59.43
41573;BME280;27286;47.870;19.006;2023-02-28T05:39:46;100395.09;;;-0.48;59.97
41573;BME280;27286;47.870;19.006;2023-02-28T05:42:11;100393.31;;;-0.52;59.48
41573;BME280;27286;47.870;19.006;2023-02-28T05:44:36;100396.69;;;-0.53;60.21
41573;BME280;27286;47.870;19.006;2023-02-28T05:47:02;100407.75;;;-0.54;59.53
41573;BME280;27286;47.870;19.006;2023-02-28T05:49:27;100394.97;;;-0.54;59.89
41573;BME280;27286;47.870;19.006;2023-02-28T05:51:53;100400.19;;;-0.50;59.13
41573;BME280;27286;47.870;19.006;2023-02-28T05:54:18;100408.03;;;-0.39;57.81
41573;BME280;27286;47.870;19.006;2023-02-28T05:56:44;100406.22;;;-0.46;59.23
41573;BME280;27286;47.870;19.006;2023-02-28T05:59:13;100421.63;;;-0.43;59.24
41573;BME280;27286;47.870;19.006;2023-02-28T06:01:41;100413.97;;;-0.42;58.76
41573;BME280;27286;47.870;19.006;2023-02-28T06:04:09;100414.03;;;-0.39;58.89
41573;BME280;27286;47.870;19.006;2023-02-28T06:06:35;100420.91;;;-0.35;57.96
41573;BME280;27286;47.870;19.006;2023-02-28T06:09:05;100414.94;;;-0.35;57.39
41573;BME280;27286;47.870;19.006;2023-02-28T06:11:31;100419.22;;;-0.34;57.77
41573;BME280;27286;47.870;19.006;2023-02-28T06:13:58;100414.16;;;-0.33;58.46
41573;BME280;27286;47.870;19.006;2023-02-28T06:16:25;100395.28;;;-0.38;57.58
41573;BME280;27286;47.870;19.006;2023-02-28T06:18:51;100417.69;;;-0.24;56.96
41573;BME280;27286;47.870;19.006;2023-02-28T06:21:18;100423.69;;;-0.24;57.57
41573;BME280;27286;47.870;19.006;2023-02-28T06:23:44;100424.72;;;-0.14;57.18
41573;BME280;27286;47.870;19.006;2023-02-28T06:26:10;100422.16;;;-0.14;57.43
41573;BME280;27286;47.870;19.006;2023-02-28T06:28:35;100435.88;;;-0.11;56.88
41573;BME280;27286;47.870;19.006;2023-02-28T06:31:08;100429.13;;;-0.06;57.62
41573;BME280;27286;47.870;19.006;2023-02-28T06:33:34;100432.69;;;0.03;56.19
41573;BME280;27286;47.870;19.006;2023-02-28T06:36:00;100425.91;;;0.06;56.50
41573;BME280;27286;47.870;19.006;2023-02-28T06:38:25;100429.47;;;0.16;55.68
41573;BME280;27286;47.870;19.006;2023-02-28T06:40:55;100433.75;;;0.17;56.43
41573;BME280;27286;47.870;19.006;2023-02-28T06:43:21;100423.63;;;0.21;55.56
41573;BME280;27286;47.870;19.006;2023-02-28T06:45:46;100419.34;;;0.22;56.45
41573;BME280;27286;47.870;19.006;2023-02-28T06:48:12;100426.31;;;0.30;55.37
41573;BME280;27286;47.870;19.006;2023-02-28T06:50:37;100427.19;;;0.33;55.63
41573;BME280;27286;47.870;19.006;2023-02-28T06:53:03;100421.28;;;0.35;56.18
41573;BME280;27286;47.870;19.006;2023-02-28T06:55:28;100419.56;;;0.34;55.56
41573;BME280;27286;47.870;19.006;2023-02-28T06:57:54;100423.03;;;0.38;55.94
41573;BME280;27286;47.870;19.006;2023-02-28T07:00:20;100429.03;;;0.40;55.01
41573;BME280;27286;47.870;19.006;2023-02-28T07:02:46;100430.88;;;0.50;55.01
41573;BME280;27286;47.870;19.006;2023-02-28T07:05:12;100430.09;;;0.52;55.28
41573;BME280;27286;47.870;19.006;2023-02-28T07:07:38;100421.63;;;0.58;54.34
41573;BME280;27286;47.870;19.006;2023-02-28T07:10:08;100425.13;;;0.65;53.62
41573;BME280;27286;47.870;19.006;2023-02-28T07:12:33;100431.22;;;0.71;54.89
41573;BME280;27286;47.870;19.006;2023-02-28T07:14:59;100433.88;;;0.80;54.48
41573;BME280;27286;47.870;19.006;2023-02-28T07:17:24;100433.16;;;0.89;54.29
41573;BME280;27286;47.870;19.006;2023-02-28T07:19:50;100429.78;;;0.90;53.19
41573;BME280;27286;47.870;19.006;2023-02-28T07:22:15;100436.66;;;0.94;54.47
41573;BME280;27286;47.870;19.006;2023-02-28T07:24:40;100438.53;;;1.06;54.38
41573;BME280;27286;47.870;19.006;2023-02-28T07:27:06;100438.72;;;1.19;52.92
41573;BME280;27286;47.870;19.006;2023-02-28T07:29:31;100429.44;;;1.32;52.63
41573;BME280;27286;47.870;19.006;2023-02-28T07:31:57;100444.13;;;1.44;52.00
41573;BME280;27286;47.870;19.006;2023-02-28T07:34:23;100442.59;;;1.58;51.92
41573;BME280;27286;47.870;19.006;2023-02-28T07:36:48;100443.56;;;1.69;51.73
41573;BME280;27286;47.870;19.006;2023-02-28T07:39:13;100441.03;;;1.71;52.05
41573;BME280;27286;47.870;19.006;2023-02-28T07:41:39;100448.91;;;1.88;51.13
41573;BME280;27286;47.870;19.006;2023-02-28T07:44:11;100448.13;;;1.98;51.80
41573;BME280;27286;47.870;19.006;2023-02-28T07:46:37;100452.53;;;2.09;50.91
41573;BME280;27286;47.870;19.006;2023-02-28T07:49:03;100452.66;;;2.23;50.51
41573;BME280;27286;47.870;19.006;2023-02-28T07:51:29;100454.53;;;2.42;49.69
41573;BME280;27286;47.870;19.006;2023-02-28T07:53:55;100449.50;;;2.59;49.21
41573;BME280;27286;47.870;19.006;2023-02-28T07:56:20;100460.78;;;2.83;48.29
41573;BME280;27286;47.870;19.006;2023-02-28T07:58:46;100458.31;;;2.95;47.20
41573;BME280;27286;47.870;19.006;2023-02-28T08:01:12;100455.81;;;3.06;48.68
41573;BME280;27286;47.870;19.006;2023-02-28T08:03:38;100453.28;;;3.16;47.11
41573;BME280;27286;47.870;19.006;2023-02-28T08:06:05;100459.41;;;3.46;45.93
41573;BME280;27286;47.870;19.006;2023-02-28T08:08:31;100451.84;;;3.88;45.63
41573;BME280;27286;47.870;19.006;2023-02-28T08:11:01;100449.25;;;4.02;44.59
41573;BME280;27286;47.870;19.006;2023-02-28T08:13:28;100455.28;;;4.10;44.58
41573;BME280;27286;47.870;19.006;2023-02-28T08:15:55;100462.19;;;4.27;45.14
41573;BME280;27286;47.870;19.006;2023-02-28T08:18:21;100463.06;;;4.38;44.94
41573;BME280;27286;47.870;19.006;2023-02-28T08:20:47;100460.47;;;4.48;44.68
41573;BME280;27286;47.870;19.006;2023-02-28T08:23:13;100469.94;;;4.71;44.10
41573;BME280;27286;47.870;19.006;2023-02-28T08:25:38;100463.88;;;4.93;43.35
41573;BME280;27286;47.870;19.006;2023-02-28T08:28:04;100468.97;;;5.18;43.20
41573;BME280;27286;47.870;19.006;2023-02-28T08:30:29;100467.25;;;5.23;43.18
41573;BME280;27286;47.870;19.006;2023-02-28T08:32:55;100461.94;;;5.52;42.71
41573;BME280;27286;47.870;19.006;2023-02-28T08:35:21;100459.28;;;5.67;42.33
41573;BME280;27286;47.870;19.006;2023-02-28T08:37:50;100459.31;;;5.65;41.28
41573;BME280;27286;47.870;19.006;2023-02-28T08:40:16;100463.53;;;5.83;41.26
41573;BME280;27286;47.870;19.006;2023-02-28T08:42:47;100464.38;;;5.88;42.06
41573;BME280;27286;47.870;19.006;2023-02-28T08:45:14;100466.00;;;6.08;41.92
41573;BME280;27286;47.870;19.006;2023-02-28T08:47:40;100460.00;;;6.06;41.50
41573;BME280;27286;47.870;19.006;2023-02-28T08:50:06;100465.91;;;6.18;40.50
41573;BME280;27286;47.870;19.006;2023-02-28T08:52:32;100465.03;;;6.24;41.03
41573;BME280;27286;47.870;19.006;2023-02-28T08:54:57;100467.56;;;6.31;39.79
41573;BME280;27286;47.870;19.006;2023-02-28T08:57:23;100464.91;;;6.42;41.61
41573;BME280;27286;47.870;19.006;2023-02-28T08:59:51;100460.63;;;6.33;41.09
41573;BME280;27286;47.870;19.006;2023-02-28T09:02:17;100459.84;;;6.21;40.03
41573;BME280;27286;47.870;19.006;2023-02-28T09:04:42;100456.53;;;6.03;40.82
41573;BME280;27286;47.870;19.006;2023-02-28T09:07:11;100462.66;;;5.90;40.57
41573;BME280;27286;47.870;19.006;2023-02-28T09:09:36;100464.34;;;5.87;40.73
41573;BME280;27286;47.870;19.006;2023-02-28T09:12:02;100459.25;;;5.78;40.68
41573;BME280;27286;47.870;19.006;2023-02-28T09:14:28;100452.44;;;5.64;41.40
41573;BME280;27286;47.870;19.006;2023-02-28T09:16:53;100461.78;;;5.87;41.36
41573;BME280;27286;47.870;19.006;2023-02-28T09:19:19;100459.13;;;6.02;40.85
41573;BME280;27286;47.870;19.006;2023-02-28T09:21:45;100451.13;;;6.36;41.13
41573;BME280;27286;47.870;19.006;2023-02-28T09:24:11;100456.97;;;6.62;40.10
41573;BME280;27286;47.870;19.006;2023-02-28T09:26:39;100450.63;;;6.92;39.81
41573;BME280;27286;47.870;19.006;2023-02-28T09:29:05;100450.97;;;7.40;38.82
41573;BME280;27286;47.870;19.006;2023-02-28T09:31:32;100451.03;;;8.00;37.75
41573;BME280;27286;47.870;19.006;2023-02-28T09:33:58;100443.22;;;8.58;37.08
41573;BME280;27286;47.870;19.006;2023-02-28T09:36:26;100454.34;;;9.13;37.04
41573;BME280;27286;47.870;19.006;2023-02-28T09:38:51;100447.38;;;9.15;35.28
41573;BME280;27286;47.870;19.006;2023-02-28T09:41:36;100449.25;;;9.51;35.69
41573;BME280;27286;47.870;19.006;2023-02-28T09:44:07;100451.84;;;9.91;35.40
41573;BME280;27286;47.870;19.006;2023-02-28T09:46:42;100450.56;;;10.48;33.24
41573;BME280;27286;47.870;19.006;2023-02-28T09:49:14;100450.56;;;10.82;31.96
41573;BME280;27286;47.870;19.006;2023-02-28T09:54:23;100450.44;;;12.35;30.06
41573;BME280;27286;47.870;19.006;2023-02-28T09:59:50;100455.28;;;13.93;28.20
41573;BME280;27286;47.870;19.006;2023-02-28T10:04:59;100458.66;;;13.26;28.70
41573;BME280;27286;47.870;19.006;2023-02-28T10:07:43;100459.94;;;13.14;29.49
41573;BME280;27286;47.870;19.006;2023-02-28T10:12:52;100454.19;;;13.53;27.99
41573;BME280;27286;47.870;19.006;2023-02-28T10:15:21;100451.72;;;13.95;26.51
41573;BME280;27286;47.870;19.006;2023-02-28T10:17:53;100447.72;;;14.30;28.07
41573;BME280;27286;47.870;19.006;2023-02-28T10:20:21;100442.03;;;14.83;27.62
41573;BME280;27286;47.870;19.006;2023-02-28T10:25:25;100432.28;;;15.26;26.06
41573;BME280;27286;47.870;19.006;2023-02-28T10:27:57;100427.59;;;15.72;25.98
41573;BME280;27286;47.870;19.006;2023-02-28T10:30:26;100427.00;;;16.03;25.90
41573;BME280;27286;47.870;19.006;2023-02-28T10:32:52;100419.31;;;16.88;25.35
41573;BME280;27286;47.870;19.006;2023-02-28T10:35:23;100420.91;;;16.90;27.41
41573;BME280;27286;47.870;19.006;2023-02-28T10:37:52;100405.22;;;18.48;24.29
41573;BME280;27286;47.870;19.006;2023-02-28T10:43:00;100391.66;;;20.23;20.69
41573;BME280;27286;47.870;19.006;2023-02-28T10:45:28;100403.00;;;19.00;21.84
41573;BME280;27286;47.870;19.006;2023-02-28T11:03:46;100400.19;;;12.01;29.48
41573;BME280;27286;47.870;19.006;2023-02-28T11:06:22;100411.44;;;11.45;30.89
41573;BME280;27286;47.870;19.006;2023-02-28T11:08:54;100412.97;;;10.91;31.72
41573;BME280;27286;47.870;19.006;2023-02-28T11:11:22;100399.91;;;10.26;32.39
41573;BME280;27286;47.870;19.006;2023-02-28T11:13:52;100402.53;;;10.24;32.87
41573;BME280;27286;47.870;19.006;2023-02-28T11:16:19;100398.16;;;11.24;31.05
41573;BME280;27286;47.870;19.006;2023-02-28T11:18:53;100389.53;;;13.57;28.50
41573;BME280;27286;47.870;19.006;2023-02-28T11:21:24;100379.94;;;15.04;26.91
41573;BME280;27286;47.870;19.006;2023-02-28T11:23:54;100383.13;;;15.11;26.13
41573;BME280;27286;47.870;19.006;2023-02-28T11:26:37;100370.00;;;16.05;26.05
41573;BME280;27286;47.870;19.006;2023-02-28T11:29:10;100367.72;;;15.61;25.60
41573;BME280;27286;47.870;19.006;2023-02-28T11:31:36;100371.91;;;15.46;25.10
41573;BME280;27286;47.870;19.006;2023-02-28T11:34:07;100372.91;;;17.35;24.52
41573;BME280;27286;47.870;19.006;2023-02-28T11:36:47;100366.91;;;17.00;24.29
41573;BME280;27286;47.870;19.006;2023-02-28T11:39:14;100366.22;;;17.61;24.02
41573;BME280;27286;47.870;19.006;2023-02-28T11:48:10;100364.81;;;15.86;24.71
41573;BME280;27286;47.870;19.006;2023-02-28T11:56:07;100372.78;;;14.68;26.43
41573;BME280;27286;47.870;19.006;2023-02-28T12:01:36;100370.59;;;12.28;29.62
41573;BME280;27286;47.870;19.006;2023-02-28T12:09:46;100364.06;;;10.69;32.76
41573;BME280;27286;47.870;19.006;2023-02-28T12:12:38;100363.19;;;11.31;33.06
41573;BME280;27286;47.870;19.006;2023-02-28T12:15:24;100358.50;;;11.42;32.56
41573;BME280;27286;47.870;19.006;2023-02-28T12:18:00;100356.19;;;11.33;32.05
41573;BME280;27286;47.870;19.006;2023-02-28T12:28:43;100340.38;;;11.09;33.84
41573;BME280;27286;47.870;19.006;2023-02-28T12:31:18;100340.59;;;11.02;34.21
41573;BME280;27286;47.870;19.006;2023-02-28T12:33:48;100337.69;;;10.81;34.43
41573;BME280;27286;47.870;19.006;2023-02-28T12:36:18;100332.00;;;10.67;34.93
41573;BME280;27286;47.870;19.006;2023-02-28T12:44:09;100328.28;;;10.45;35.99
41573;BME280;27286;47.870;19.006;2023-02-28T12:46:47;100317.28;;;10.34;35.05
41573;BME280;27286;47.870;19.006;2023-02-28T12:51:51;100322.63;;;10.29;35.17
41573;BME280;27286;47.870;19.006;2023-02-28T12:59:41;100314.72;;;10.96;34.37
41573;BME280;27286;47.870;19.006;2023-02-28T13:10:48;100313.91;;;10.30;34.82
41573;BME280;27286;47.870;19.006;2023-02-28T13:13:24;100313.97;;;10.29;36.03
41573;BME280;27286;47.870;19.006;2023-02-28T13:21:06;100311.94;;;10.04;35.94
41573;BME280;27286;47.870;19.006;2023-02-28T13:24:08;100308.31;;;10.45;36.14
41573;BME280;27286;47.870;19.006;2023-02-28T13:35:12;100299.16;;;10.31;37.29
41573;BME280;27286;47.870;19.006;2023-02-28T13:37:35;100301.34;;;10.12;37.45
41573;BME280;27286;47.870;19.006;2023-02-28T14:03:15;100296.53;;;7.31;42.69
41573;BME280;27286;47.870;19.006;2023-02-28T14:05:44;100294.06;;;7.23;42.62
41573;BME280;27286;47.870;19.006;2023-02-28T14:08:20;100299.13;;;7.30;42.30
41573;BME280;27286;47.870;19.006;2023-02-28T14:10:49;100290.38;;;7.40;42.40
41573;BME280;27286;47.870;19.006;2023-02-28T14:13:37;100295.44;;;7.46;42.77
41573;BME280;27286;47.870;19.006;2023-02-28T14:16:10;100285.06;;;7.47;43.03
41573;BME280;27286;47.870;19.006;2023-02-28T14:18:40;100291.97;;;7.47;43.15
41573;BME280;27286;47.870;19.006;2023-02-28T14:21:27;100286.91;;;7.38;43.87
41573;BME280;27286;47.870;19.006;2023-02-28T14:24:09;100291.25;;;7.36;43.22
41573;BME280;27286;47.870;19.006;2023-02-28T14:27:24;100289.50;;;7.38;43.56
41573;BME280;27286;47.870;19.006;2023-02-28T14:34:44;100286.28;;;7.20;43.68
41573;BME280;27286;47.870;19.006;2023-02-28T14:37:20;100282.94;;;7.15;43.93
41573;BME280;27286;47.870;19.006;2023-02-28T14:39:50;100282.94;;;7.14;45.03
41573;BME280;27286;47.870;19.006;2023-02-28T14:42:31;100276.09;;;7.11;44.51
41573;BME280;27286;47.870;19.006;2023-02-28T14:44:57;100277.88;;;7.06;44.85
41573;BME280;27286;47.870;19.006;2023-02-28T14:47:27;100277.88;;;7.05;44.99
41573;BME280;27286;47.870;19.006;2023-02-28T14:49:53;100272.78;;;6.99;45.03
41573;BME280;27286;47.870;19.006;2023-02-28T14:52:21;100279.63;;;7.04;45.60
41573;BME280;27286;47.870;19.006;2023-02-28T14:55:01;100275.16;;;7.15;45.15
41573;BME280;27286;47.870;19.006;2023-02-28T14:57:33;100281.94;;;7.26;45.63
41573;BME280;27286;47.870;19.006;2023-02-28T15:00:16;100277.50;;;7.32;46.05
41573;BME280;27286;47.870;19.006;2023-02-28T15:02:42;100286.09;;;7.36;45.72
41573;BME280;27286;47.870;19.006;2023-02-28T15:07:43;100287.91;;;7.29;46.28
41573;BME280;27286;47.870;19.006;2023-02-28T15:10:25;100280.25;;;7.20;47.72
41573;BME280;27286;47.870;19.006;2023-02-28T15:12:56;100290.63;;;7.20;46.79
41573;BME280;27286;47.870;19.006;2023-02-28T15:18:29;100289.19;;;6.99;46.38
41573;BME280;27286;47.870;19.006;2023-02-28T15:20:59;100286.72;;;6.90;47.60
41573;BME280;27286;47.870;19.006;2023-02-28T15:23:27;100285.13;;;6.80;46.69
41573;BME280;27286;47.870;19.006;2023-02-28T15:25:54;100289.47;;;6.76;47.55
41573;BME280;27286;47.870;19.006;2023-02-28T15:28:22;100282.69;;;6.66;48.76
41573;BME280;27286;47.870;19.006;2023-02-28T15:30:59;100284.44;;;6.64;49.46
41573;BME280;27286;47.870;19.006;2023-02-28T15:33:31;100288.84;;;6.54;48.89
41573;BME280;27286;47.870;19.006;2023-02-28T15:36:15;100282.94;;;6.45;49.75